Time;durP1;ratioP1;P1;durP2;ratioP2;P2;SDS_P1;SDS_P2;PMS_P1;PMS_P2;Temp;Humidity;BMP_temperature;BMP_pressure;BME280_temperature;BME280_humidity;BME280_pressure;Samples;Min_cycle;Max_cycle;Signal;HPM_P1;HPM_P2
2021/10/20 00:01:49;;;;;;;2.2;1.3;;;;;;;11.5;94.34863;943.4858;;;;
2021/10/20 00:04:15;;;;;;;1.9;1.4;;;;;;;11.54;93.86426;943.4066;;;;
2021/10/20 00:06:39;;;;;;;1.6;1.5;;;;;;;11.32;94.36621;943.463;;;;
2021/10/20 00:09:06;;;;;;;1.9;1.5;;;;;;;11.14;95.10449;943.4344;;;;
2021/10/20 00:11:31;;;;;;;2.4;1.7;;;;;;;11.07;95.35352;943.4167;;;;
2021/10/20 00:13:56;;;;;;;3.7;1.7;;;;;;;10.97;95.55762;943.3702;;;;
2021/10/20 00:16:21;;;;;;;1.8;1.6;;;;;;;10.99;95.72363;943.3283;;;;
2021/10/20 00:18:48;;;;;;;2.2;1.7;;;;;;;10.95;95.34863;943.3212;;;;
2021/10/20 00:21:11;;;;;;;2.5;1.5;;;;;;;10.88;95.54004;943.274;;;;
2021/10/20 00:23:36;;;;;;;1.6;1.5;;;;;;;10.85;95.69238;943.2592;;;;
2021/10/20 00:26:02;;;;;;;1.9;1.5;;;;;;;10.86;96.03906;943.2354;;;;
2021/10/20 00:28:27;;;;;;;1.8;1.5;;;;;;;10.85;95.93164;943.2081;;;;
2021/10/20 00:30:53;;;;;;;1.6;1.5;;;;;;;10.84;95.51855;943.2;;;;
2021/10/20 00:33:18;;;;;;;3.2;1.6;;;;;;;10.72;95.90234;943.188;;;;
2021/10/20 00:35:45;;;;;;;1.9;1.5;;;;;;;10.65;95.92188;943.1663;;;;
2021/10/20 00:38:10;;;;;;;2.6;1.4;;;;;;;10.66;95.62695;943.0917;;;;
2021/10/20 00:40:35;;;;;;;1.7;1.5;;;;;;;10.63;95.70117;943.087;;;;
2021/10/20 00:43:01;;;;;;;2.7;1.5;;;;;;;10.56;95.86816;942.9437;;;;
2021/10/20 00:45:26;;;;;;;1.6;1.2;;;;;;;10.51;96.99805;943.0489;;;;
2021/10/20 00:47:51;;;;;;;1.7;1.2;;;;;;;10.54;96.43457;942.9396;;;;
2021/10/20 00:50:16;;;;;;;2.1;1.3;;;;;;;10.54;95.94141;942.9324;;;;
2021/10/20 00:52:41;;;;;;;2.2;1.3;;;;;;;10.34;96.8125;942.9685;;;;
2021/10/20 00:55:09;;;;;;;2.5;1.4;;;;;;;10.21;98.57324;942.8953;;;;
2021/10/20 00:57:34;;;;;;;1.7;1.5;;;;;;;10.29;97.70215;942.8769;;;;
2021/10/20 00:59:59;;;;;;;2;1.6;;;;;;;10.3;97.60156;942.8937;;;;
2021/10/20 01:02:24;;;;;;;1.6;1.3;;;;;;;10.32;96.94336;942.7842;;;;
2021/10/20 01:04:49;;;;;;;2.8;1.5;;;;;;;10.15;98.08008;942.7598;;;;
2021/10/20 01:07:14;;;;;;;2.3;1.6;;;;;;;10.22;98.1084;942.7386;;;;
2021/10/20 01:09:39;;;;;;;1.7;1.2;;;;;;;10.27;96.82129;942.7595;;;;
2021/10/20 01:12:04;;;;;;;1.6;1.5;;;;;;;10.31;96.17871;942.7682;;;;
2021/10/20 01:14:30;;;;;;;1.9;1.3;;;;;;;10.32;95.88477;942.7589;;;;
2021/10/20 01:16:55;;;;;;;3.9;1.9;;;;;;;10.31;95.91504;942.6869;;;;
2021/10/20 01:19:21;;;;;;;3.2;1.4;;;;;;;10.28;95.47461;942.6984;;;;
2021/10/20 01:21:45;;;;;;;2.1;1.4;;;;;;;10.19;96.07324;942.6533;;;;
2021/10/20 01:24:11;;;;;;;2.7;1.5;;;;;;;10.09;96.71973;942.5709;;;;
2021/10/20 01:26:36;;;;;;;2.5;1.4;;;;;;;10.18;96.36523;942.6316;;;;
2021/10/20 01:29:01;;;;;;;2;1.8;;;;;;;10.09;96.25391;942.5258;;;;
2021/10/20 01:31:26;;;;;;;1.7;1.2;;;;;;;10.1;96.51855;942.4655;;;;
2021/10/20 01:37:42;;;;;;;1.6;1.3;;;;;;;10.01;97.94629;942.3926;;;;
2021/10/20 01:40:07;;;;;;;2;1.3;;;;;;;10.03;97.76855;942.3408;;;;
2021/10/20 01:42:32;;;;;;;3.1;1.2;;;;;;;10.11;96.86328;942.3208;;;;
2021/10/20 01:44:58;;;;;;;2;1.3;;;;;;;10.15;96.94141;942.2594;;;;
2021/10/20 01:47:23;;;;;;;1.6;1.4;;;;;;;10.23;96.05664;942.2112;;;;
2021/10/20 01:49:48;;;;;;;2.1;1.4;;;;;;;10.43;94.65234;942.1822;;;;
2021/10/20 01:52:19;;;;;;;1.9;1.3;;;;;;;10.5;93.60645;942.1547;;;;
2021/10/20 01:54:45;;;;;;;1.3;1.2;;;;;;;10.41;93.45996;942.1078;;;;
2021/10/20 01:57:10;;;;;;;2.9;1.5;;;;;;;10.01;95.46094;942.066;;;;
2021/10/20 01:59:35;;;;;;;1.8;1.4;;;;;;;9.91;96.62695;941.9829;;;;
2021/10/20 02:02:01;;;;;;;2.2;1.4;;;;;;;9.97;96.33105;941.9449;;;;
2021/10/20 02:04:26;;;;;;;1.6;1.3;;;;;;;9.91;96.13379;941.9358;;;;
2021/10/20 02:06:53;;;;;;;1.6;1.5;;;;;;;9.9;96.06152;941.8561;;;;
2021/10/20 02:09:18;;;;;;;1.9;1.3;;;;;;;9.74;96.50586;941.8761;;;;
2021/10/20 02:11:44;;;;;;;1.4;1.3;;;;;;;9.75;96.29395;941.7531;;;;
2021/10/20 02:14:09;;;;;;;2.3;1.3;;;;;;;9.67;96.5127;941.8795;;;;
2021/10/20 02:16:34;;;;;;;3;1.2;;;;;;;9.47;97.74219;941.7872;;;;
2021/10/20 02:18:59;;;;;;;2.6;1.3;;;;;;;9.39;99.00293;941.7871;;;;
2021/10/20 02:21:25;;;;;;;2.2;1.3;;;;;;;9.39;99.5957;941.7966;;;;
2021/10/20 02:23:50;;;;;;;2.2;1.4;;;;;;;9.5;99.20996;941.6806;;;;
2021/10/20 02:26:15;;;;;;;1.8;1.3;;;;;;;9.56;98.66699;941.7692;;;;
2021/10/20 02:28:42;;;;;;;3.1;2;;;;;;;9.65;98.10449;941.702;;;;
2021/10/20 02:31:07;;;;;;;2.2;2;;;;;;;9.69;97.93164;941.5865;;;;
2021/10/20 02:33:32;;;;;;;2.3;2;;;;;;;9.68;98.83984;941.5211;;;;
2021/10/20 02:35:58;;;;;;;1.6;1.2;;;;;;;9.7;98.03418;941.5803;;;;
2021/10/20 02:38:23;;;;;;;2.7;1.8;;;;;;;9.6;98.52441;941.4169;;;;
2021/10/20 02:40:48;;;;;;;2.6;1.7;;;;;;;9.61;99.23535;941.4174;;;;
2021/10/20 02:43:13;;;;;;;1.7;1.4;;;;;;;9.66;98.66406;941.4182;;;;
2021/10/20 02:45:39;;;;;;;1.4;1.1;;;;;;;9.66;98.07422;941.3681;;;;
2021/10/20 02:48:04;;;;;;;2.3;1.1;;;;;;;9.65;97.29492;941.3601;;;;
2021/10/20 02:50:30;;;;;;;1.7;1.3;;;;;;;9.54;97.66895;941.3331;;;;
2021/10/20 02:52:55;;;;;;;1.8;1.2;;;;;;;9.52;97.91602;941.2517;;;;
2021/10/20 02:55:22;;;;;;;1.2;1.1;;;;;;;9.54;97.74902;941.2449;;;;
2021/10/20 02:57:47;;;;;;;2;1.2;;;;;;;9.63;97.35742;941.2594;;;;
2021/10/20 03:00:13;;;;;;;1.3;1.2;;;;;;;9.66;97.34277;941.2321;;;;
2021/10/20 03:02:39;;;;;;;1.9;1.5;;;;;;;9.79;97.88574;941.1978;;;;
2021/10/20 03:05:04;;;;;;;2.5;1.8;;;;;;;9.77;97.52637;941.1099;;;;
2021/10/20 03:07:29;;;;;;;1.6;1.2;;;;;;;9.97;97.84766;941.1566;;;;
2021/10/20 03:09:54;;;;;;;2.1;1.5;;;;;;;9.93;95.63672;941.0453;;;;
2021/10/20 03:12:19;;;;;;;2.1;1.4;;;;;;;9.98;94.63184;941.0103;;;;
2021/10/20 03:14:44;;;;;;;2.8;1.4;;;;;;;9.9;94.96973;940.9272;;;;
2021/10/20 03:17:10;;;;;;;3.4;1.7;;;;;;;9.76;94.90332;940.9246;;;;
2021/10/20 03:19:34;;;;;;;2.6;1.5;;;;;;;9.57;95.53613;940.9489;;;;
2021/10/20 03:21:59;;;;;;;1.6;1.3;;;;;;;9.49;96.99609;940.9998;;;;
2021/10/20 03:24:24;;;;;;;2.8;1.6;;;;;;;9.41;97.01465;940.8889;;;;
2021/10/20 03:26:49;;;;;;;2.4;1.4;;;;;;;9.36;97.67383;940.9711;;;;
2021/10/20 03:29:14;;;;;;;3.6;1.6;;;;;;;9.39;97.27051;940.9295;;;;
2021/10/20 03:31:41;;;;;;;2.5;1.6;;;;;;;9.44;96.66699;940.8664;;;;
2021/10/20 03:34:06;;;;;;;4;1.6;;;;;;;9.38;96.73535;940.8459;;;;
2021/10/20 03:36:31;;;;;;;3.2;2;;;;;;;9.46;97.21777;940.8508;;;;
2021/10/20 03:38:56;;;;;;;7.4;2.5;;;;;;;9.44;97.49902;940.8044;;;;
2021/10/20 03:41:22;;;;;;;5.4;2.4;;;;;;;9.53;97.32813;940.8306;;;;
2021/10/20 03:43:47;;;;;;;5.9;2.4;;;;;;;9.56;97.12891;940.7993;;;;
2021/10/20 03:46:12;;;;;;;4.2;2.5;;;;;;;9.48;97.04199;940.8098;;;;
2021/10/20 03:48:37;;;;;;;2.6;1.8;;;;;;;9.55;97.23633;940.7759;;;;
2021/10/20 03:51:02;;;;;;;3.7;1.8;;;;;;;10.2;94.8291;940.7347;;;;
2021/10/20 03:53:28;;;;;;;1.9;1.3;;;;;;;10.3;93.11719;940.704;;;;
2021/10/20 03:55:53;;;;;;;2.6;1.4;;;;;;;10.32;92.03613;940.7028;;;;
2021/10/20 03:58:19;;;;;;;3.7;2;;;;;;;10.11;92.49414;940.6864;;;;
2021/10/20 04:02:31;;;;;;;1.4;1.2;;;;;;;9.96;93.49902;940.5358;;;;
2021/10/20 04:04:56;;;;;;;1.8;1.5;;;;;;;10.01;92.71094;940.5811;;;;
2021/10/20 04:07:23;;;;;;;1.2;1.1;;;;;;;10.08;93.45605;940.5546;;;;
2021/10/20 04:09:48;;;;;;;3.8;2.3;;;;;;;10.06;93.41797;940.6038;;;;
2021/10/20 04:12:13;;;;;;;3.3;1.9;;;;;;;10.31;93.70313;940.5348;;;;
2021/10/20 04:14:39;;;;;;;2.5;1.6;;;;;;;10.65;91.19434;940.5319;;;;
2021/10/20 04:17:06;;;;;;;3.1;2;;;;;;;10.75;89.86719;940.5259;;;;
2021/10/20 04:21:57;;;;;;;2.9;1.3;;;;;;;10.66;90.52246;940.5025;;;;
2021/10/20 04:24:22;;;;;;;1.8;1.4;;;;;;;10.78;89.78125;940.4004;;;;
2021/10/20 04:26:47;;;;;;;1.7;1.4;;;;;;;10.74;89.09961;940.4095;;;;
2021/10/20 04:29:12;;;;;;;2.9;1.5;;;;;;;10.17;90.59082;940.3611;;;;
2021/10/20 04:31:37;;;;;;;3;2.1;;;;;;;10.03;91.84961;940.2698;;;;
2021/10/20 04:34:03;;;;;;;3.2;2.2;;;;;;;9.91;92.22363;940.259;;;;
2021/10/20 04:36:28;;;;;;;4.9;3.3;;;;;;;9.79;92.2666;940.2029;;;;
2021/10/20 04:38:55;;;;;;;5.6;3.2;;;;;;;9.64;92.87207;940.207;;;;
2021/10/20 04:41:20;;;;;;;4.9;3;;;;;;;9.48;93.87598;940.0627;;;;
2021/10/20 04:43:46;;;;;;;4.8;3.6;;;;;;;9.26;95.30664;940.0658;;;;
2021/10/20 04:46:11;;;;;;;5;3.1;;;;;;;9.27;95.85449;940.0946;;;;
2021/10/20 04:48:36;;;;;;;3.9;3.1;;;;;;;9.47;96.26367;939.9869;;;;
2021/10/20 04:51:02;;;;;;;4.5;3;;;;;;;9.51;94.75879;939.9694;;;;
2021/10/20 04:53:28;;;;;;;6.8;3.6;;;;;;;9.46;94.38184;939.9144;;;;
2021/10/20 04:55:53;;;;;;;6.7;4.2;;;;;;;9.28;94.98242;939.908;;;;
2021/10/20 04:58:18;;;;;;;4.8;3.2;;;;;;;9.19;95.37012;939.8879;;;;
2021/10/20 05:00:44;;;;;;;5.3;3.4;;;;;;;9.1;95.61426;939.8689;;;;
2021/10/20 05:03:11;;;;;;;6.2;3.9;;;;;;;8.94;97.20215;939.8681;;;;
2021/10/20 05:05:36;;;;;;;5.2;3.1;;;;;;;8.98;97.23535;939.8364;;;;
2021/10/20 05:08:01;;;;;;;4.5;3.6;;;;;;;9.04;97.06543;939.7686;;;;
2021/10/20 05:10:26;;;;;;;7;4;;;;;;;9.13;96.64453;939.7201;;;;
2021/10/20 05:12:52;;;;;;;6.1;3.7;;;;;;;9.16;96.10352;939.7119;;;;
2021/10/20 05:15:17;;;;;;;5.3;3.6;;;;;;;9.21;97.27734;939.5884;;;;
2021/10/20 05:17:44;;;;;;;4.6;3.5;;;;;;;9.19;96.21289;939.6116;;;;
2021/10/20 05:20:09;;;;;;;3.3;2.6;;;;;;;9.23;97.18848;939.5559;;;;
2021/10/20 05:22:36;;;;;;;4.1;2.8;;;;;;;9.36;96.01172;939.5747;;;;
2021/10/20 05:25:01;;;;;;;5.1;2.6;;;;;;;9.4;96.12207;939.515;;;;
2021/10/20 05:27:26;;;;;;;4.6;2.4;;;;;;;9.43;95.73145;939.5666;;;;
2021/10/20 05:29:51;;;;;;;2.9;2.2;;;;;;;9.42;95.89844;939.4662;;;;
2021/10/20 05:32:17;;;;;;;2.8;2.3;;;;;;;9.44;95.18652;939.4023;;;;
2021/10/20 05:34:42;;;;;;;3.6;2.4;;;;;;;9.46;95.19043;939.4113;;;;
2021/10/20 05:37:08;;;;;;;4.2;2;;;;;;;9.55;94.90332;939.3563;;;;
2021/10/20 05:39:33;;;;;;;4.5;2.9;;;;;;;9.57;94.36035;939.3541;;;;
2021/10/20 05:41:59;;;;;;;5;3.3;;;;;;;9.41;94.22461;939.3983;;;;
2021/10/20 05:44:24;;;;;;;5.7;3.7;;;;;;;9.35;94.51758;939.2989;;;;
2021/10/20 05:46:52;;;;;;;3.5;2.9;;;;;;;9.38;94.86523;939.262;;;;
2021/10/20 05:49:16;;;;;;;3.4;2.9;;;;;;;9.41;94.29297;939.1905;;;;
2021/10/20 05:51:41;;;;;;;4.4;2.9;;;;;;;9.53;93.56641;939.197;;;;
2021/10/20 05:54:06;;;;;;;5.1;2.9;;;;;;;9.31;94.86328;939.1926;;;;
2021/10/20 05:56:31;;;;;;;7;3.4;;;;;;;9.26;95.63672;939.1632;;;;
2021/10/20 05:58:57;;;;;;;5.3;3.3;;;;;;;9.18;96.19922;939.1919;;;;
2021/10/20 06:01:23;;;;;;;4.5;3.3;;;;;;;9.23;95.9375;939.1914;;;;
2021/10/20 06:03:47;;;;;;;4.9;2.7;;;;;;;9.39;96.04199;939.1105;;;;
2021/10/20 06:06:12;;;;;;;4.8;3.2;;;;;;;9.46;94.84961;939.1443;;;;
2021/10/20 06:08:37;;;;;;;5.9;2.8;;;;;;;9.58;94.54492;939.1016;;;;
2021/10/20 06:11:03;;;;;;;6.1;3.2;;;;;;;9.74;94.51172;939.1017;;;;
2021/10/20 06:13:28;;;;;;;7.3;4;;;;;;;9.87;93.32129;939.079;;;;
2021/10/20 06:15:54;;;;;;;14.4;7.2;;;;;;;10.04;92.44434;939.1387;;;;
2021/10/20 06:18:19;;;;;;;24.8;12;;;;;;;10.09;92.39941;939.1037;;;;
2021/10/20 06:20:46;;;;;;;18.2;10.3;;;;;;;9.94;93.07324;939.0887;;;;
2021/10/20 06:23:11;;;;;;;11.6;5.8;;;;;;;10.13;93.01172;939.0778;;;;
2021/10/20 06:25:37;;;;;;;11;6.1;;;;;;;10.32;91.7627;939.0862;;;;
2021/10/20 06:28:02;;;;;;;8.9;4.1;;;;;;;10.4;90.35352;939.0522;;;;
2021/10/20 06:30:28;;;;;;;5;3.2;;;;;;;10.51;90.21582;938.9422;;;;
2021/10/20 06:32:53;;;;;;;5;2.8;;;;;;;10.54;91.84473;939.0095;;;;
2021/10/20 06:35:19;;;;;;;6.4;3;;;;;;;10.45;91.43555;938.9352;;;;
2021/10/20 06:37:44;;;;;;;5;3.4;;;;;;;10.45;90.48828;938.9495;;;;
2021/10/20 06:40:11;;;;;;;5.6;3.3;;;;;;;10.42;90.75879;938.9317;;;;
2021/10/20 06:42:36;;;;;;;5.4;3.2;;;;;;;10.31;91.69238;938.9692;;;;
2021/10/20 06:45:03;;;;;;;6.7;4.4;;;;;;;10.43;91.6377;938.962;;;;
2021/10/20 06:47:27;;;;;;;6.3;3.3;;;;;;;10.58;91.05273;938.9421;;;;
2021/10/20 06:49:53;;;;;;;4.9;3.3;;;;;;;10.76;90.79395;938.8583;;;;
2021/10/20 06:52:18;;;;;;;6;3.2;;;;;;;10.95;89.67969;938.8936;;;;
2021/10/20 06:54:44;;;;;;;6.3;2.7;;;;;;;10.93;89.13867;938.8433;;;;
2021/10/20 06:57:24;;;;;;;4.2;2.7;;;;;;;10.95;89.54297;938.9144;;;;
2021/10/20 06:59:50;;;;;;;4.6;2.2;;;;;;;11.1;89.20801;938.9065;;;;
2021/10/20 07:02:15;;;;;;;4.6;2.5;;;;;;;11.29;89.33887;938.8381;;;;
2021/10/20 07:04:40;;;;;;;4.1;2.6;;;;;;;11.59;88.34766;938.8101;;;;
2021/10/20 07:07:10;;;;;;;4.3;2.1;;;;;;;11.91;86.93457;938.8024;;;;
2021/10/20 07:09:30;;;;;;;6;2.1;;;;;;;12.27;86.86914;938.8125;;;;
2021/10/20 07:11:59;;;;;;;4.3;2.6;;;;;;;12.27;84.53027;938.834;;;;
2021/10/20 07:14:23;;;;;;;5.8;2.3;;;;;;;12.03;84.7373;938.8025;;;;
2021/10/20 07:16:48;;;;;;;8.2;3.6;;;;;;;12.02;85.66113;938.9126;;;;
2021/10/20 07:19:13;;;;;;;6.1;3.1;;;;;;;12.24;85.92383;938.8787;;;;
2021/10/20 07:21:40;;;;;;;8.6;3.6;;;;;;;12.43;85.82422;938.8477;;;;
2021/10/20 07:24:04;;;;;;;3.5;1.9;;;;;;;12.53;85.51074;938.8544;;;;
2021/10/20 07:26:30;;;;;;;4.6;2.4;;;;;;;12.77;84.30762;938.8129;;;;
2021/10/20 07:28:55;;;;;;;4.7;2.5;;;;;;;13.07;83.23047;938.8187;;;;
2021/10/20 07:31:20;;;;;;;5.4;2.7;;;;;;;13.39;83.54199;938.7497;;;;
2021/10/20 07:33:45;;;;;;;6.4;2.9;;;;;;;13.59;83.28125;938.8337;;;;
2021/10/20 07:36:10;;;;;;;6.6;3.3;;;;;;;13.85;82.37598;938.7924;;;;
2021/10/20 07:38:36;;;;;;;3.7;2.3;;;;;;;13.89;81.24414;938.8282;;;;
2021/10/20 07:41:02;;;;;;;3.9;2;;;;;;;14.17;80.72168;938.8717;;;;
2021/10/20 07:43:29;;;;;;;2.9;1.7;;;;;;;14.29;79.13184;938.8915;;;;
2021/10/20 07:45:54;;;;;;;3.4;1.8;;;;;;;14.48;81.18262;938.9851;;;;
2021/10/20 07:48:19;;;;;;;3.2;1.4;;;;;;;14.75;79.68945;938.9864;;;;
2021/10/20 07:50:45;;;;;;;2.5;1.1;;;;;;;14.65;79.56543;938.9229;;;;
2021/10/20 07:53:10;;;;;;;2.4;1.1;;;;;;;14.86;79.31543;938.9108;;;;
2021/10/20 07:55:36;;;;;;;2;1;;;;;;;14.81;79.31836;938.9221;;;;
2021/10/20 07:58:01;;;;;;;2.3;1.1;;;;;;;15.17;77.59375;938.7896;;;;
2021/10/20 08:00:27;;;;;;;2.8;1.2;;;;;;;15.92;73.54297;938.8101;;;;
2021/10/20 08:02:52;;;;;;;2.6;1.3;;;;;;;16.5;71.09277;938.7111;;;;
2021/10/20 08:05:19;;;;;;;5;2.5;;;;;;;17.56;66.86816;938.7143;;;;
2021/10/20 08:07:47;;;;;;;4.7;2.5;;;;;;;18.35;63.75781;938.7043;;;;
2021/10/20 08:10:09;;;;;;;8.5;3.2;;;;;;;19.45;60.25684;938.731;;;;
2021/10/20 08:12:34;;;;;;;7.1;2.3;;;;;;;20.3;55.49316;938.6055;;;;
2021/10/20 08:15:02;;;;;;;0.7;0.7;;;;;;;20.97;54.19727;938.5809;;;;
2021/10/20 08:17:25;;;;;;;1.9;0.9;;;;;;;21.38;53.9082;938.6194;;;;
2021/10/20 08:19:50;;;;;;;7.7;1.3;;;;;;;22.39;50.24219;938.661;;;;
2021/10/20 08:22:15;;;;;;;5.7;1.5;;;;;;;23.15;47.95313;938.5175;;;;
2021/10/20 08:24:42;;;;;;;2;1;;;;;;;23.79;45.79883;938.5451;;;;
2021/10/20 08:27:07;;;;;;;3.1;0.9;;;;;;;24.7;43.80566;938.5;;;;
2021/10/20 08:29:34;;;;;;;2.7;1;;;;;;;25.23;42.71289;938.4883;;;;
2021/10/20 08:31:59;;;;;;;0.8;0.8;;;;;;;25.46;41.69531;938.5111;;;;
2021/10/20 08:34:25;;;;;;;1.4;1;;;;;;;24.44;44.09863;938.4108;;;;
2021/10/20 08:36:51;;;;;;;2.2;0.8;;;;;;;24.48;43.7832;938.4047;;;;
2021/10/20 08:39:16;;;;;;;3.4;1;;;;;;;23.6;45.00293;938.3615;;;;
2021/10/20 08:41:41;;;;;;;1.3;0.8;;;;;;;23.37;46.48535;938.3325;;;;
2021/10/20 08:44:06;;;;;;;1.8;0.7;;;;;;;23.16;46.79199;938.2603;;;;
2021/10/20 08:46:31;;;;;;;0.7;0.6;;;;;;;22.45;47.51563;938.2542;;;;
2021/10/20 08:48:57;;;;;;;2.3;1.1;;;;;;;21.76;50.73242;938.2187;;;;
2021/10/20 08:51:22;;;;;;;2.2;1;;;;;;;21.52;53.62012;938.2036;;;;
2021/10/20 08:53:46;;;;;;;2.7;1.2;;;;;;;21.38;53.07813;938.1389;;;;
2021/10/20 08:56:14;;;;;;;1.8;1.2;;;;;;;20.48;55.375;938.1869;;;;
2021/10/20 08:58:36;;;;;;;2.1;1.6;;;;;;;20.65;53.84277;938.103;;;;
2021/10/20 09:01:02;;;;;;;6.6;1.8;;;;;;;20.35;55.19531;938.0751;;;;
2021/10/20 09:03:27;;;;;;;7.5;2.2;;;;;;;20.39;55.97168;938.0958;;;;
2021/10/20 09:05:52;;;;;;;5.5;1.6;;;;;;;20;57.3584;938.0568;;;;
2021/10/20 09:08:17;;;;;;;2.5;1.3;;;;;;;19.69;56.92188;938.0881;;;;
2021/10/20 09:10:42;;;;;;;4.1;1.3;;;;;;;19.73;58.91992;938.0353;;;;
2021/10/20 09:13:07;;;;;;;2;1.3;;;;;;;19.42;61.02246;938.046;;;;
2021/10/20 09:15:32;;;;;;;4.9;1.5;;;;;;;19.53;59.62695;937.986;;;;
2021/10/20 09:17:58;;;;;;;3.1;1.2;;;;;;;19.55;60.30566;938.014;;;;
2021/10/20 09:20:23;;;;;;;2.7;1.1;;;;;;;19.49;60.76465;938.0135;;;;
2021/10/20 09:22:48;;;;;;;1.8;0.9;;;;;;;19.62;61.34277;937.9445;;;;
2021/10/20 09:25:13;;;;;;;1.6;1;;;;;;;19.7;59.33496;937.9384;;;;
2021/10/20 09:27:38;;;;;;;2.8;1;;;;;;;19.79;59.09082;937.9402;;;;
2021/10/20 09:30:03;;;;;;;2.4;1;;;;;;;19.63;59.06934;937.8547;;;;
2021/10/20 09:32:28;;;;;;;1.4;0.9;;;;;;;19.88;58.55469;937.8401;;;;
2021/10/20 09:34:54;;;;;;;1.7;0.8;;;;;;;20.05;57.48047;937.7914;;;;
2021/10/20 09:37:19;;;;;;;1.8;0.8;;;;;;;20.14;57.09473;937.8253;;;;
2021/10/20 09:39:46;;;;;;;1.3;0.9;;;;;;;20.13;58.41309;937.7478;;;;
2021/10/20 09:42:12;;;;;;;0.7;0.7;;;;;;;20.13;56.41699;937.7463;;;;
2021/10/20 09:44:38;;;;;;;1.5;0.9;;;;;;;20.22;57.09473;937.7335;;;;
2021/10/20 09:47:03;;;;;;;1.3;1;;;;;;;20.33;55.92871;937.69;;;;
2021/10/20 09:49:33;;;;;;;1.6;0.8;;;;;;;20.1;59.08496;937.6672;;;;
2021/10/20 09:51:53;;;;;;;3.4;1.6;;;;;;;20.15;60.24707;937.6691;;;;
2021/10/20 09:54:18;;;;;;;2.5;1.1;;;;;;;20.05;59.89648;937.6281;;;;
2021/10/20 09:56:43;;;;;;;1.2;0.7;;;;;;;20.08;57.25098;937.6161;;;;
2021/10/20 09:59:09;;;;;;;1.1;0.8;;;;;;;20.25;58.26367;937.5396;;;;
2021/10/20 10:01:34;;;;;;;1.4;0.9;;;;;;;20.24;57.00293;937.5226;;;;
2021/10/20 10:04:02;;;;;;;2.6;0.7;;;;;;;20.22;56.48633;937.3928;;;;
2021/10/20 10:06:26;;;;;;;1.5;0.8;;;;;;;20.13;57.28125;937.3694;;;;
2021/10/20 10:08:51;;;;;;;0.7;0.5;;;;;;;20.05;56.55957;937.3208;;;;
2021/10/20 10:11:16;;;;;;;0.9;0.6;;;;;;;20.18;55.75879;937.2709;;;;
2021/10/20 10:13:43;;;;;;;0.7;0.4;;;;;;;20.23;56.04492;937.2166;;;;
2021/10/20 10:16:08;;;;;;;1.2;0.7;;;;;;;20.36;55.68848;937.1964;;;;
2021/10/20 10:18:33;;;;;;;1.2;0.6;;;;;;;20.37;56.2373;937.1055;;;;
2021/10/20 10:20:58;;;;;;;1.1;0.6;;;;;;;20.42;55.36816;937.0998;;;;
2021/10/20 10:23:23;;;;;;;0.6;0.6;;;;;;;20.46;56.14453;937.0638;;;;
2021/10/20 10:25:48;;;;;;;0.7;0.6;;;;;;;20.57;53.3418;936.965;;;;
2021/10/20 10:28:13;;;;;;;1.4;0.7;;;;;;;20.74;54.71973;936.9874;;;;
2021/10/20 10:30:38;;;;;;;2.8;0.6;;;;;;;20.67;54.39355;936.9412;;;;
2021/10/20 10:33:04;;;;;;;0.5;0.5;;;;;;;20.65;52.1377;936.8947;;;;
2021/10/20 10:35:28;;;;;;;0.5;0.5;;;;;;;20.68;53.36816;936.9319;;;;
2021/10/20 10:37:56;;;;;;;1;0.7;;;;;;;20.49;52.94727;936.8876;;;;
2021/10/20 10:40:21;;;;;;;1.4;0.5;;;;;;;20.55;52.88379;936.8274;;;;
2021/10/20 10:42:46;;;;;;;0.9;0.7;;;;;;;20.71;52.80859;936.8575;;;;
2021/10/20 10:45:13;;;;;;;0.7;0.6;;;;;;;20.76;57.03418;936.8461;;;;
2021/10/20 10:47:36;;;;;;;0.6;0.5;;;;;;;21;53.91992;936.7802;;;;
2021/10/20 10:50:01;;;;;;;1;0.6;;;;;;;21.09;55.03125;936.677;;;;
2021/10/20 10:52:27;;;;;;;1.3;0.7;;;;;;;21.42;51.43066;936.6892;;;;
2021/10/20 10:54:52;;;;;;;1.9;0.5;;;;;;;21.44;50.75488;936.6027;;;;
2021/10/20 10:57:18;;;;;;;1.2;0.6;;;;;;;21.69;50.6543;936.4653;;;;
2021/10/20 10:59:43;;;;;;;0.5;0.5;;;;;;;22;50.39746;936.467;;;;
2021/10/20 11:02:08;;;;;;;1;0.6;;;;;;;22.07;49.19824;936.3912;;;;
2021/10/20 11:04:33;;;;;;;1.8;0.7;;;;;;;22.38;47.88281;936.3351;;;;
2021/10/20 11:06:58;;;;;;;0.8;0.7;;;;;;;22.44;47.93652;936.3102;;;;
2021/10/20 11:09:30;;;;;;;0.6;0.5;;;;;;;22.55;47.00977;936.2458;;;;
2021/10/20 11:11:49;;;;;;;0.7;0.7;;;;;;;22.03;50.59863;936.2427;;;;
2021/10/20 11:14:14;;;;;;;1.1;0.7;;;;;;;21.97;50.03027;936.1513;;;;
2021/10/20 11:16:39;;;;;;;1.1;0.8;;;;;;;22.02;50.08301;936.0966;;;;
2021/10/20 11:19:04;;;;;;;0.9;0.6;;;;;;;22.28;49.71289;935.9683;;;;
2021/10/20 11:21:30;;;;;;;1.7;0.8;;;;;;;22.74;46.92383;935.916;;;;
2021/10/20 11:23:55;;;;;;;1.4;0.9;;;;;;;23.1;47.13867;935.9091;;;;
2021/10/20 11:26:20;;;;;;;1.5;0.6;;;;;;;23.3;46.46484;935.8773;;;;
2021/10/20 11:28:46;;;;;;;1;0.7;;;;;;;23.75;45.7832;935.8702;;;;
2021/10/20 11:31:11;;;;;;;1.7;1;;;;;;;23.98;44.74707;935.851;;;;
2021/10/20 11:33:36;;;;;;;0.9;0.8;;;;;;;24.01;46.55176;935.7978;;;;
2021/10/20 11:36:01;;;;;;;1.8;1;;;;;;;24.24;44.58496;935.6958;;;;
2021/10/20 11:38:26;;;;;;;1.4;0.8;;;;;;;24.41;44.93262;935.6926;;;;
2021/10/20 11:40:53;;;;;;;1.4;0.8;;;;;;;24.83;44.20605;935.668;;;;
2021/10/20 11:43:18;;;;;;;1.4;1;;;;;;;25.12;43.74023;935.5881;;;;
2021/10/20 11:45:43;;;;;;;0.7;0.7;;;;;;;25.72;42.01367;935.5661;;;;
2021/10/20 11:48:09;;;;;;;1.1;0.7;;;;;;;26.58;40.52051;935.4586;;;;
2021/10/20 11:50:34;;;;;;;2.2;0.8;;;;;;;26.96;39.22754;935.4459;;;;
2021/10/20 11:53:00;;;;;;;1.6;0.7;;;;;;;28.89;35.80176;935.4808;;;;
2021/10/20 11:55:24;;;;;;;0.7;0.7;;;;;;;29.3;35.20215;935.3858;;;;
2021/10/20 11:57:49;;;;;;;53.9;2.2;;;;;;;28.45;36.4082;935.4422;;;;
2021/10/20 12:00:14;;;;;;;0.7;0.7;;;;;;;28.23;35.9043;935.403;;;;
2021/10/20 12:02:40;;;;;;;0.6;0.6;;;;;;;28.36;35.56934;935.4288;;;;
2021/10/20 12:05:05;;;;;;;1.3;0.6;;;;;;;26.71;38.22168;935.3755;;;;
2021/10/20 12:07:32;;;;;;;1;0.9;;;;;;;26.77;38.57031;935.2841;;;;
2021/10/20 12:09:57;;;;;;;0.9;0.7;;;;;;;25.96;40.6543;935.3044;;;;
2021/10/20 12:12:22;;;;;;;2.1;0.8;;;;;;;25.27;42.77539;935.2986;;;;
2021/10/20 12:14:47;;;;;;;1;0.6;;;;;;;25.63;41.90039;935.3077;;;;
2021/10/20 12:17:14;;;;;;;1.4;0.8;;;;;;;27.5;38.52734;935.1348;;;;
2021/10/20 12:19:40;;;;;;;1.6;0.9;;;;;;;27.25;39.45508;935.2171;;;;
2021/10/20 12:22:05;;;;;;;0.8;0.8;;;;;;;28.08;37.37793;935.2099;;;;
2021/10/20 12:24:30;;;;;;;0.9;0.7;;;;;;;27.69;38.66309;935.1789;;;;
2021/10/20 12:26:55;;;;;;;1.3;0.9;;;;;;;27.16;39.90918;935.2452;;;;
2021/10/20 12:29:20;;;;;;;1.9;0.6;;;;;;;26.71;40.56738;935.2033;;;;
2021/10/20 12:31:45;;;;;;;1.4;0.7;;;;;;;27.09;39.90332;935.2681;;;;
2021/10/20 12:34:12;;;;;;;0.6;0.6;;;;;;;27.64;38.58691;935.1781;;;;
2021/10/20 12:36:37;;;;;;;1.1;0.8;;;;;;;28.34;37.16113;935.2463;;;;
2021/10/20 12:39:03;;;;;;;1.1;0.8;;;;;;;28.82;35.51074;935.3314;;;;
2021/10/20 12:41:28;;;;;;;1.2;0.9;;;;;;;29.18;34.41895;935.3603;;;;
2021/10/20 12:43:54;;;;;;;1.3;0.9;;;;;;;29.8;32.25977;935.2495;;;;
2021/10/20 12:46:19;;;;;;;0.9;0.8;;;;;;;29.27;33.81836;935.3728;;;;
2021/10/20 12:48:44;;;;;;;0.8;0.8;;;;;;;28.22;35.08301;935.5114;;;;
2021/10/20 12:51:10;;;;;;;67.5;3;;;;;;;26.7;37.19043;935.5012;;;;
2021/10/20 12:53:35;;;;;;;1.4;1;;;;;;;25.84;39.56738;935.5239;;;;
2021/10/20 12:56:01;;;;;;;102;4.7;;;;;;;25.42;38.40723;935.519;;;;
2021/10/20 12:58:26;;;;;;;1.4;1.1;;;;;;;25.44;38.72754;935.5705;;;;
2021/10/20 13:00:53;;;;;;;1.9;1.1;;;;;;;24.87;39.56445;935.5375;;;;
2021/10/20 13:03:18;;;;;;;1.7;1.1;;;;;;;24.04;40.71484;935.564;;;;
2021/10/20 13:05:44;;;;;;;1;1;;;;;;;24.07;40.3291;935.6163;;;;
2021/10/20 13:08:09;;;;;;;1.6;1.1;;;;;;;24.7;39.82031;935.631;;;;
2021/10/20 13:10:35;;;;;;;2.8;1.4;;;;;;;25.46;38.42285;935.5349;;;;
2021/10/20 13:13:00;;;;;;;2.1;1.1;;;;;;;25.53;38.39355;935.5291;;;;
2021/10/20 13:15:29;;;;;;;1.8;1.2;;;;;;;25.12;38.94922;935.5934;;;;
2021/10/20 13:17:53;;;;;;;2.5;1.6;;;;;;;24.94;38.87402;935.5916;;;;
2021/10/20 13:20:19;;;;;;;2.4;1.4;;;;;;;25.06;38.75488;935.6147;;;;
2021/10/20 13:22:44;;;;;;;1.5;1.1;;;;;;;24.92;39.28516;935.636;;;;
2021/10/20 13:25:10;;;;;;;3;1.4;;;;;;;23.62;41.90039;935.675;;;;
2021/10/20 13:27:36;;;;;;;1.2;1.1;;;;;;;23.69;41.41211;935.6878;;;;
2021/10/20 13:30:01;;;;;;;1.7;1.2;;;;;;;23.46;41.52051;935.6567;;;;
2021/10/20 13:32:26;;;;;;;2;1.3;;;;;;;23.38;42.83008;935.6688;;;;
2021/10/20 13:34:52;;;;;;;1.5;1.3;;;;;;;23.04;43.17285;935.6495;;;;
2021/10/20 13:37:17;;;;;;;3.4;1.3;;;;;;;22.85;43.10742;935.5711;;;;
2021/10/20 13:39:43;;;;;;;2.8;1.4;;;;;;;22.9;42.88867;935.5195;;;;
2021/10/20 13:42:08;;;;;;;3.6;1.7;;;;;;;22.95;42.74121;935.4612;;;;
2021/10/20 13:44:35;;;;;;;1.9;1.5;;;;;;;22.73;42.95508;935.4156;;;;
2021/10/20 13:47:01;;;;;;;2.2;1.3;;;;;;;22.81;43.06836;935.4244;;;;
2021/10/20 13:49:27;;;;;;;1.4;1.1;;;;;;;22.94;43.01074;935.448;;;;
2021/10/20 13:51:52;;;;;;;2.2;1.3;;;;;;;23.06;42.35352;935.5356;;;;
2021/10/20 13:54:18;;;;;;;2.3;1.3;;;;;;;23.32;41.86035;935.6822;;;;
2021/10/20 13:56:43;;;;;;;2.1;1.3;;;;;;;23.71;40.89648;935.6512;;;;
2021/10/20 13:59:10;;;;;;;1.3;1;;;;;;;23.95;40.96582;935.6548;;;;
2021/10/20 14:01:34;;;;;;;2.5;1.5;;;;;;;24.06;40.35156;935.6038;;;;
2021/10/20 14:04:01;;;;;;;2.6;1.3;;;;;;;24.14;40.67676;935.634;;;;
2021/10/20 14:06:26;;;;;;;1.9;1.3;;;;;;;23.81;41.95313;935.5782;;;;
2021/10/20 14:08:51;;;;;;;3.1;1.1;;;;;;;23.49;41.60547;935.5856;;;;
2021/10/20 14:11:17;;;;;;;2.7;1.4;;;;;;;22.88;43.8623;935.663;;;;
2021/10/20 14:13:42;;;;;;;1.8;1.3;;;;;;;22.83;43.75195;935.6833;;;;
2021/10/20 14:16:08;;;;;;;2.3;1.6;;;;;;;22.85;43.10742;935.7181;;;;
2021/10/20 14:18:33;;;;;;;3.2;1.4;;;;;;;22.73;43.6709;935.7266;;;;
2021/10/20 14:20:59;;;;;;;4;1.3;;;;;;;22.97;43.21289;935.7332;;;;
2021/10/20 14:23:24;;;;;;;1.6;1.3;;;;;;;23.36;42.78027;935.7489;;;;
2021/10/20 14:25:51;;;;;;;2.1;1.4;;;;;;;23.56;42.57617;935.7209;;;;